createdAt,value
2018-10-02T01:44:41.805Z,6.30
2018-10-02T03:30:57.007Z,5.92
2018-10-02T03:31:56.918Z,5.80
2018-10-02T03:32:56.868Z,5.87
2018-10-02T03:33:56.795Z,5.81
2018-10-02T03:34:56.728Z,5.73
2018-10-02T03:35:56.720Z,5.78
2018-10-02T03:36:56.845Z,5.74
2018-10-02T03:37:56.760Z,5.74
2018-10-02T04:00:35.579Z,5.77
2018-10-02T04:01:35.557Z,5.65
2018-10-02T04:02:35.559Z,5.65
2018-10-02T04:03:35.640Z,5.63
2018-10-02T04:04:35.533Z,5.56
2018-10-02T04:05:35.510Z,5.55
2018-10-02T04:06:35.499Z,5.58
2018-10-02T04:07:35.502Z,5.52
2018-10-02T04:08:35.475Z,5.48
2018-10-02T04:09:35.530Z,5.48
2018-10-02T04:10:35.475Z,5.48
2018-10-02T04:11:35.442Z,5.51
2018-10-02T04:12:35.445Z,5.45
2018-10-02T04:13:35.418Z,5.42
2018-10-02T04:14:35.411Z,5.40
2018-10-02T04:15:35.431Z,5.35
2018-10-02T04:16:35.416Z,5.33
2018-10-02T04:17:35.390Z,5.33
2018-10-02T04:18:35.410Z,5.22
2018-10-02T04:19:35.432Z,5.19
2018-10-02T04:20:35.389Z,5.32
2018-10-02T04:21:35.331Z,5.30
2018-10-02T04:22:35.447Z,5.22
2018-10-02T04:23:35.357Z,5.22
2018-10-02T04:24:35.319Z,5.14
2018-10-02T04:25:35.287Z,5.19
2018-10-02T04:26:35.276Z,5.05
2018-10-02T04:27:35.277Z,5.11
2018-10-02T04:28:35.289Z,4.97
2018-10-02T04:29:35.244Z,4.91
2018-10-02T04:30:35.233Z,4.90
2018-10-02T04:31:35.220Z,4.91
2018-10-02T04:32:35.318Z,4.90
2018-10-02T04:33:35.276Z,4.87
2018-10-02T04:34:35.188Z,4.83
2018-10-02T04:35:35.202Z,4.80
2018-10-02T04:36:35.252Z,4.77
2018-10-02T04:37:35.166Z,4.80
2018-10-02T04:38:35.218Z,4.75
2018-10-02T04:39:35.202Z,4.74
2018-10-02T04:40:35.122Z,4.74
2018-10-02T04:41:35.140Z,4.65
2018-10-02T04:42:35.105Z,4.75
2018-10-02T04:43:35.081Z,4.77
2018-10-02T04:44:35.074Z,4.77
2018-10-02T04:45:35.062Z,4.83
2018-10-02T04:46:35.103Z,4.84
2018-10-02T04:47:35.053Z,4.86
2018-10-02T04:48:35.029Z,4.86
2018-10-02T04:49:35.021Z,4.87
2018-10-02T04:50:35.001Z,4.87
2018-10-02T04:51:35.017Z,4.88
2018-10-02T04:52:35.079Z,4.96
2018-10-02T04:53:34.972Z,4.93
2018-10-02T04:54:34.961Z,4.96
2018-10-02T04:55:34.999Z,4.99
2018-10-02T04:56:34.938Z,4.97
2018-10-02T04:57:35.011Z,5.05
2018-10-02T04:58:34.916Z,5.06
2018-10-02T04:59:34.916Z,5.09
2018-10-02T05:00:34.894Z,5.19
2018-10-02T05:01:34.880Z,5.04
2018-10-02T05:02:34.925Z,5.11
2018-10-02T05:03:34.859Z,5.20
2018-10-02T05:04:34.855Z,5.09
2018-10-02T05:05:34.840Z,5.15
2018-10-02T05:06:34.824Z,5.15
2018-10-02T05:07:34.828Z,5.08
2018-10-02T05:08:34.818Z,5.22
2018-10-02T05:09:34.794Z,5.17
2018-10-02T05:10:34.844Z,5.08
2018-10-02T05:11:34.773Z,5.12
2018-10-02T05:12:34.915Z,5.20
2018-10-02T05:13:34.748Z,5.05
2018-10-02T05:14:34.764Z,5.12
2018-10-02T05:15:34.726Z,5.27
2018-10-02T05:16:34.714Z,5.22
2018-10-02T05:17:34.715Z,5.26
2018-10-02T05:18:34.703Z,5.20
2018-10-02T05:19:34.680Z,5.19
2018-10-02T05:20:34.689Z,5.06
2018-10-02T05:21:34.657Z,5.06
2018-10-02T05:22:34.660Z,5.17
2018-10-02T05:23:34.635Z,5.12
2018-10-02T05:24:34.625Z,5.22
2018-10-02T05:25:34.612Z,5.19
2018-10-02T05:26:34.664Z,5.19
2018-10-02T05:27:34.658Z,5.23
2018-10-02T05:28:34.578Z,5.22
2018-10-02T05:29:34.578Z,5.22
2018-10-02T05:30:34.559Z,5.20
2018-10-02T05:31:34.564Z,5.22
2018-10-02T05:32:34.549Z,5.12
2018-10-02T05:33:34.540Z,5.15
2018-10-02T05:34:34.514Z,5.24
2018-10-02T05:35:34.592Z,5.20
2018-10-02T05:36:34.513Z,5.12
2018-10-02T05:37:34.491Z,5.15
2018-10-02T05:38:34.468Z,5.23
2018-10-02T05:39:34.509Z,5.08
2018-10-02T05:40:34.457Z,5.14
2018-10-02T05:41:34.434Z,5.12
2018-10-02T05:42:34.459Z,5.12
2018-10-02T05:43:34.415Z,5.23
2018-10-02T05:44:34.455Z,5.20
2018-10-02T05:45:34.390Z,5.08
2018-10-02T05:46:34.378Z,5.11
2018-10-02T05:47:34.440Z,5.17
2018-10-02T05:48:34.372Z,5.06
2018-10-02T05:49:34.344Z,5.22
2018-10-02T05:50:34.356Z,5.11
2018-10-02T05:51:34.321Z,5.22
2018-10-02T05:52:34.330Z,5.29
2018-10-02T05:53:34.338Z,5.27
2018-10-02T05:54:34.292Z,5.32
2018-10-02T05:55:34.280Z,5.27
2018-10-02T05:56:34.277Z,5.41
2018-10-02T05:57:34.270Z,5.37
2018-10-02T05:58:34.274Z,5.48
2018-10-02T05:59:34.234Z,5.48
2018-10-02T06:00:34.259Z,5.58
2018-10-02T06:01:34.215Z,5.56
2018-10-02T06:02:34.236Z,5.66
2018-10-02T06:03:34.189Z,5.70
2018-10-02T06:04:34.186Z,5.73
2018-10-02T06:05:34.166Z,5.88
2018-10-02T06:06:34.159Z,5.95
2018-10-02T06:07:34.143Z,5.99
2018-10-02T06:08:34.206Z,6.10
2018-10-02T06:09:34.121Z,6.20
2018-10-02T06:10:34.114Z,6.32
2018-10-02T06:11:34.173Z,6.38
2018-10-02T06:12:34.087Z,6.35
2018-10-02T06:13:34.091Z,6.43
2018-10-02T06:14:34.103Z,6.48
2018-10-02T06:15:34.054Z,6.51
2018-10-02T06:16:34.044Z,6.60
2018-10-02T06:17:34.040Z,6.61
2018-10-02T06:18:34.254Z,6.60
2018-10-02T06:19:34.243Z,6.75
2018-10-02T06:20:34.056Z,6.69
2018-10-02T06:21:34.130Z,6.73
2018-10-02T06:22:33.977Z,6.79
2018-10-02T06:23:33.998Z,6.73
2018-10-02T06:24:34.018Z,6.69
2018-10-02T06:25:33.948Z,6.69
2018-10-02T06:26:33.931Z,6.63
2018-10-02T06:27:34.052Z,6.71
2018-10-02T06:28:34.049Z,6.76
2018-10-02T06:29:34.059Z,6.79
2018-10-02T06:30:34.207Z,6.86
2018-10-02T06:31:33.922Z,6.79
2018-10-02T06:32:34.153Z,6.81
2018-10-02T06:33:33.989Z,6.83
2018-10-02T06:34:33.897Z,6.86
2018-10-02T06:35:33.829Z,6.89
2018-10-02T06:36:33.946Z,6.99
2018-10-02T06:37:34.013Z,6.93
2018-10-02T06:38:34.054Z,6.99
2018-10-02T06:39:33.998Z,6.99
2018-10-02T06:40:34.000Z,6.99
2018-10-02T06:41:33.818Z,6.94
2018-10-02T06:42:33.923Z,6.94
2018-10-02T06:43:33.873Z,6.97
2018-10-02T06:44:33.914Z,6.94
2018-10-02T06:45:33.735Z,6.97
2018-10-02T06:46:33.710Z,6.93
2018-10-02T06:47:33.697Z,6.99
2018-10-02T06:48:33.965Z,7.05
2018-10-02T06:49:33.746Z,7.08
2018-10-02T06:50:33.753Z,7.07
2018-10-02T06:51:33.759Z,7.23
2018-10-02T06:52:34.100Z,7.19
2018-10-02T06:53:33.902Z,7.23
2018-10-02T06:54:33.657Z,7.27
2018-10-02T06:55:33.649Z,7.23
2018-10-02T06:56:33.779Z,7.39
2018-10-02T06:57:33.589Z,7.34
2018-10-02T06:58:33.753Z,7.27
2018-10-02T06:59:33.598Z,7.33
2018-10-02T07:00:33.573Z,7.29
2018-10-02T07:01:33.604Z,7.41
2018-10-02T07:02:33.584Z,7.45
2018-10-02T07:03:33.527Z,7.41
2018-10-02T07:04:33.504Z,7.33
2018-10-02T07:05:33.491Z,7.27
2018-10-02T07:06:33.492Z,7.34
2018-10-02T07:07:33.553Z,7.37
2018-10-02T07:08:33.519Z,7.33
2018-10-02T07:09:33.451Z,7.42
2018-10-02T07:10:33.648Z,7.41
2018-10-02T07:11:33.424Z,7.34
2018-10-02T07:12:33.495Z,7.37
2018-10-02T07:13:33.417Z,7.39
2018-10-02T07:14:33.405Z,7.44
2018-10-02T07:15:33.402Z,7.47
2018-10-02T07:16:33.371Z,7.50
2018-10-02T07:17:33.423Z,7.51
2018-10-02T07:18:33.357Z,7.47
2018-10-02T07:19:33.337Z,7.45
2018-10-02T07:20:33.374Z,7.51
2018-10-02T07:21:33.314Z,7.36
2018-10-02T07:22:33.303Z,7.42
2018-10-02T07:23:33.302Z,7.48
2018-10-02T07:24:33.280Z,7.33
2018-10-02T07:25:33.270Z,7.39
2018-10-02T07:26:33.303Z,7.41
2018-10-02T07:27:33.356Z,7.37
2018-10-02T07:28:33.248Z,7.32
2018-10-02T07:29:33.229Z,7.48
2018-10-02T07:30:33.258Z,7.45
2018-10-02T07:31:33.202Z,7.45
2018-10-02T07:32:33.317Z,7.51
2018-10-02T07:33:33.195Z,7.45
2018-10-02T07:34:33.169Z,7.45
2018-10-02T07:35:33.177Z,7.57
2018-10-02T07:36:33.188Z,7.55
2018-10-02T07:37:33.133Z,7.60
2018-10-02T07:38:33.227Z,7.69
2018-10-02T07:39:33.125Z,7.71
2018-10-02T07:40:33.103Z,7.71
2018-10-02T07:41:33.175Z,7.76
2018-10-02T07:42:33.080Z,7.74
2018-10-02T07:43:33.081Z,7.77
2018-10-02T07:44:33.101Z,7.77
2018-10-02T07:45:33.046Z,7.77
2018-10-02T07:46:33.035Z,7.85
2018-10-02T07:47:33.039Z,7.94
2018-10-02T07:48:33.117Z,7.95
2018-10-02T07:49:33.015Z,7.86
2018-10-02T07:50:33.009Z,7.81
2018-10-02T07:51:32.978Z,7.88
2018-10-02T07:52:32.993Z,7.91
2018-10-02T07:53:33.395Z,7.89
2018-10-02T07:54:32.931Z,7.77
2018-10-02T07:55:33.004Z,7.77
2018-10-02T07:56:32.948Z,7.91
2018-10-02T07:57:33.329Z,7.92
2018-10-02T07:58:33.160Z,7.88
2018-10-02T07:59:32.948Z,8.02
2018-10-02T08:00:32.882Z,8.07
2018-10-02T08:01:33.086Z,8.09
2018-10-02T08:02:32.940Z,8.04
2018-10-02T08:03:33.119Z,8.09
2018-10-02T08:04:32.830Z,8.21
2018-10-02T08:05:32.867Z,8.07
2018-10-02T08:06:32.848Z,8.00
2018-10-02T08:07:32.798Z,7.88
2018-10-02T08:08:32.884Z,8.03
2018-10-02T08:09:32.766Z,8.09
2018-10-02T08:10:32.766Z,8.00
2018-10-02T08:11:32.833Z,8.03
2018-10-02T08:12:32.751Z,8.06
2018-10-02T08:13:32.868Z,8.12
2018-10-02T08:14:32.744Z,8.13
2018-10-02T08:15:32.710Z,7.96
2018-10-02T08:16:32.687Z,8.04
2018-10-02T08:17:32.745Z,8.03
2018-10-02T08:18:32.684Z,7.96
2018-10-02T08:19:32.666Z,7.89
2018-10-02T08:20:32.738Z,7.92
2018-10-02T08:21:32.642Z,7.92
2018-10-02T08:22:32.639Z,7.96
2018-10-02T08:23:32.630Z,8.06
2018-10-02T08:24:32.620Z,8.13
2018-10-02T08:25:32.595Z,8.12
2018-10-02T08:26:32.614Z,8.14
2018-10-02T08:27:32.576Z,8.13
2018-10-02T08:28:32.552Z,8.12
2018-10-02T08:29:32.600Z,8.06
2018-10-02T08:30:32.541Z,8.12
2018-10-02T08:31:32.520Z,8.06
2018-10-02T08:32:32.642Z,8.07
2018-10-02T08:33:32.495Z,8.04
2018-10-02T08:34:32.510Z,8.09
2018-10-02T08:35:32.583Z,8.03
2018-10-02T08:36:32.488Z,8.12
2018-10-02T08:37:32.465Z,8.28
2018-10-02T08:38:32.501Z,8.22
2018-10-02T08:39:32.446Z,8.31
2018-10-02T08:40:32.442Z,8.47
2018-10-02T08:41:32.424Z,8.43
2018-10-02T08:42:32.397Z,8.50
2018-10-02T08:43:32.471Z,8.54
2018-10-02T08:44:32.453Z,8.52
2018-10-02T08:45:32.495Z,8.50
2018-10-02T08:46:32.355Z,8.49
2018-10-02T08:47:32.433Z,8.49
2018-10-02T08:48:32.327Z,8.46
2018-10-02T08:49:32.399Z,8.49
2018-10-02T08:50:32.416Z,8.50
2018-10-02T08:51:32.310Z,8.52
2018-10-02T08:52:32.288Z,8.68
2018-10-02T08:53:32.441Z,8.73
2018-10-02T08:54:32.711Z,8.78
2018-10-02T08:55:32.417Z,8.98
2018-10-02T08:56:32.250Z,8.94
2018-10-02T08:57:32.239Z,8.78
2018-10-02T08:58:32.214Z,8.71
2018-10-02T08:59:32.252Z,8.89
2018-10-02T09:00:32.222Z,8.89
2018-10-02T09:01:32.195Z,8.78
2018-10-02T09:02:32.174Z,8.86
2018-10-02T09:03:32.202Z,8.89
2018-10-02T09:04:32.255Z,8.75
2018-10-02T09:05:32.152Z,8.89
2018-10-02T09:06:32.192Z,8.88
2018-10-02T09:07:32.129Z,8.80
2018-10-02T09:08:32.118Z,8.78
2018-10-02T09:09:32.135Z,8.76
2018-10-02T09:10:32.098Z,8.88
2018-10-02T09:11:32.086Z,8.80
2018-10-02T09:12:32.769Z,8.93
2018-10-02T09:13:32.053Z,8.93
2018-10-02T09:14:32.052Z,8.93
2018-10-02T09:15:32.128Z,9.08
2018-10-02T09:16:32.111Z,8.98
2018-10-02T09:17:32.010Z,9.06
2018-10-02T09:18:32.010Z,9.19
2018-10-02T09:19:32.008Z,8.98
2018-10-02T09:20:31.985Z,8.96
2018-10-02T09:21:31.994Z,8.88
2018-10-02T09:22:32.143Z,8.80
2018-10-02T09:23:31.949Z,8.68
2018-10-02T09:24:32.029Z,8.78
2018-10-02T09:25:31.912Z,8.78
2018-10-02T09:26:31.913Z,8.65
2018-10-02T09:27:31.960Z,8.57
2018-10-02T09:28:31.970Z,8.49
2018-10-02T09:29:31.919Z,8.52
2018-10-02T09:30:32.313Z,8.54
2018-10-02T09:31:31.873Z,8.47
2018-10-02T09:32:32.089Z,8.47
2018-10-02T09:33:31.859Z,8.49
2018-10-02T09:34:31.855Z,8.42
2018-10-02T09:35:31.814Z,8.36
2018-10-02T09:36:31.889Z,8.24
2018-10-02T09:37:31.909Z,8.27
2018-10-02T09:38:31.774Z,8.31
2018-10-02T09:39:31.836Z,8.24
2018-10-02T09:40:31.762Z,8.27
2018-10-02T09:41:31.944Z,8.27
2018-10-02T09:42:31.936Z,8.27
2018-10-02T09:43:31.823Z,8.25
2018-10-02T09:44:31.733Z,8.28
2018-10-02T09:45:31.751Z,8.24
2018-10-02T09:46:31.699Z,8.25
2018-10-02T09:47:31.682Z,8.31
2018-10-02T09:48:31.660Z,8.31
2018-10-02T09:49:31.672Z,8.42
2018-10-02T09:50:31.959Z,8.49
2018-10-02T09:51:31.639Z,8.57
2018-10-02T09:52:31.622Z,8.50
2018-10-02T09:53:31.783Z,8.45
2018-10-02T09:54:31.713Z,8.37
2018-10-02T09:55:31.634Z,8.39
2018-10-02T09:56:31.593Z,8.28
2018-10-02T09:57:31.568Z,8.29
2018-10-02T09:58:31.964Z,8.32
2018-10-02T09:59:31.556Z,8.28
2018-10-02T10:00:31.601Z,8.27
2018-10-02T10:01:31.520Z,8.27
2018-10-02T10:02:31.553Z,8.29
2018-10-02T10:03:31.799Z,8.27
2018-10-02T10:04:31.498Z,8.18
2018-10-02T10:05:31.475Z,8.21
2018-10-02T10:06:31.501Z,8.06
2018-10-02T10:07:31.451Z,8.06
2018-10-02T10:08:31.442Z,8.04
2018-10-02T10:09:31.473Z,8.14
2018-10-02T10:10:31.485Z,8.00
2018-10-02T10:11:31.405Z,8.18
2018-10-02T10:12:31.469Z,8.18
2018-10-02T10:13:31.386Z,8.18
2018-10-02T10:14:31.598Z,8.17
2018-10-02T10:15:31.360Z,8.27
2018-10-02T10:16:31.465Z,8.14
2018-10-02T10:17:31.538Z,8.02
2018-10-02T10:18:31.331Z,8.02
2018-10-02T10:19:31.321Z,8.02
2018-10-02T10:20:31.321Z,8.12
2018-10-02T10:21:31.298Z,8.14
2018-10-02T10:22:31.289Z,8.03
2018-10-02T10:23:31.277Z,8.09
2018-10-02T10:24:31.267Z,8.18
2018-10-02T10:25:31.361Z,8.03
2018-10-02T10:26:31.279Z,7.99
2018-10-02T10:27:31.231Z,8.09
2018-10-02T10:28:31.225Z,8.13
2018-10-02T10:29:31.214Z,8.12
2018-10-02T10:30:31.206Z,7.96
2018-10-02T10:31:31.188Z,8.04
2018-10-02T10:32:31.202Z,8.00
2018-10-02T10:33:31.206Z,8.04
2018-10-02T10:34:31.185Z,8.04
2018-10-02T10:35:31.150Z,8.06
2018-10-02T10:36:31.149Z,8.07
2018-10-02T10:37:31.111Z,7.94
2018-10-02T10:38:31.105Z,7.91
2018-10-02T10:39:31.093Z,7.99
2018-10-02T10:40:31.124Z,7.89
2018-10-02T10:41:31.103Z,8.03
2018-10-02T10:42:31.065Z,8.07
2018-10-02T10:43:31.048Z,7.96
2018-10-02T10:44:31.063Z,7.99
2018-10-02T10:45:31.037Z,8.03
2018-10-02T10:46:31.017Z,8.00
2018-10-02T10:47:31.056Z,8.09
2018-10-02T10:48:30.991Z,8.04
2018-10-02T10:49:30.980Z,8.02
2018-10-02T10:50:31.045Z,8.02
2018-10-02T10:51:30.957Z,8.02
2018-10-02T10:52:30.944Z,8.13
2018-10-02T10:53:30.934Z,8.10
2018-10-02T10:54:30.926Z,8.12
2018-10-02T10:55:30.923Z,8.10
2018-10-02T10:56:30.924Z,8.12
2018-10-02T10:57:30.941Z,8.06
2018-10-02T10:58:30.997Z,8.04
2018-10-02T10:59:30.867Z,8.10
2018-10-02T11:00:31.008Z,8.06
2018-10-02T11:01:30.844Z,8.07
2018-10-02T11:02:30.867Z,8.18
2018-10-02T11:03:30.824Z,8.18
2018-10-02T11:04:30.853Z,8.18
2018-10-02T11:05:30.810Z,8.20
2018-10-02T11:06:30.786Z,8.27
2018-10-02T11:07:30.824Z,8.42
2018-10-02T11:08:30.768Z,8.54
2018-10-02T11:09:30.805Z,8.47
2018-10-02T11:10:30.758Z,8.55
2018-10-02T11:11:30.737Z,8.52
2018-10-02T11:12:30.912Z,8.54
2018-10-02T11:13:30.712Z,8.52
2018-10-02T11:14:30.699Z,8.55
2018-10-02T11:15:30.717Z,8.54
2018-10-02T11:16:30.692Z,8.50
2018-10-02T11:17:30.666Z,8.52
2018-10-02T11:18:30.713Z,8.52
2018-10-02T11:19:30.675Z,8.57
2018-10-02T11:20:30.648Z,8.50
2018-10-02T11:21:30.732Z,8.54
2018-10-02T11:22:30.614Z,8.65
2018-10-02T11:23:30.600Z,8.75
2018-10-02T11:24:30.803Z,8.80
2018-10-02T11:25:30.655Z,8.82
2018-10-02T11:26:30.565Z,8.83
2018-10-02T11:27:30.552Z,8.93
2018-10-02T11:28:30.543Z,8.75
2018-10-02T11:29:31.038Z,8.91
2018-10-02T11:30:30.530Z,8.86
2018-10-02T11:31:30.532Z,8.86
2018-10-02T11:32:30.867Z,8.91
2018-10-02T11:33:30.484Z,8.89
2018-10-02T11:34:30.478Z,8.82
2018-10-02T11:35:30.596Z,8.73
2018-10-02T11:36:30.664Z,8.80
2018-10-02T11:37:30.500Z,8.73
2018-10-02T11:38:30.431Z,8.65
2018-10-02T11:39:30.509Z,8.52
2018-10-02T11:40:30.540Z,8.46
2018-10-02T11:41:30.393Z,8.45
2018-10-02T11:42:30.387Z,8.45
2018-10-02T11:43:30.404Z,8.46
2018-10-02T11:44:30.469Z,8.40
2018-10-02T11:45:30.369Z,8.40
2018-10-02T11:46:30.348Z,8.39
2018-10-02T11:47:30.329Z,8.29
2018-10-02T11:48:30.329Z,8.31
2018-10-02T11:49:30.319Z,8.28
2018-10-02T11:50:30.559Z,8.28
2018-10-02T11:51:30.711Z,8.29
2018-10-02T11:52:30.273Z,8.25
2018-10-02T11:53:30.262Z,8.27
2018-10-02T11:54:30.251Z,8.32
2018-10-02T11:55:30.258Z,8.27
2018-10-02T11:56:30.228Z,8.29
2018-10-02T11:57:30.238Z,8.27
2018-10-02T11:58:30.205Z,8.20
2018-10-02T11:59:30.197Z,8.18
2018-10-02T12:00:30.199Z,8.17
2018-10-02T12:01:30.308Z,8.25
2018-10-02T12:02:30.209Z,8.31
2018-10-02T12:03:30.228Z,8.27
2018-10-02T12:04:30.136Z,8.29
2018-10-02T12:05:30.141Z,8.22
2018-10-02T12:06:30.236Z,8.28
2018-10-02T12:07:30.104Z,8.13
2018-10-02T12:08:30.120Z,8.06
2018-10-02T12:09:30.109Z,8.20
2018-10-02T12:10:30.205Z,8.00
2018-10-02T12:11:30.239Z,8.17
2018-10-02T12:12:30.045Z,8.04
2018-10-02T12:13:30.076Z,8.04
2018-10-02T12:14:30.421Z,7.95
2018-10-02T12:15:30.031Z,8.20
2018-10-02T12:16:30.147Z,8.17
2018-10-02T12:17:29.989Z,8.12
2018-10-02T12:18:29.983Z,8.07
2018-10-02T12:19:30.181Z,8.06
2018-10-02T12:20:30.111Z,8.03
2018-10-02T12:21:30.200Z,8.17
2018-10-02T12:22:29.956Z,8.14
2018-10-02T12:23:29.951Z,8.17
2018-10-02T12:24:29.980Z,8.18
2018-10-02T12:25:29.925Z,8.14
2018-10-02T12:26:29.929Z,8.20
2018-10-02T12:27:29.881Z,8.17
2018-10-02T12:28:29.868Z,8.17
2018-10-02T12:29:29.904Z,8.14
2018-10-02T12:30:29.882Z,8.10
2018-10-02T12:31:30.286Z,8.09
2018-10-02T12:32:29.861Z,8.04
2018-10-02T12:33:29.816Z,8.04
2018-10-02T12:34:29.883Z,8.00
2018-10-02T12:35:29.791Z,8.07
2018-10-02T12:36:29.790Z,8.13
2018-10-02T12:37:29.774Z,8.09
2018-10-02T12:38:29.824Z,8.12
2018-10-02T12:39:29.745Z,8.07
2018-10-02T12:40:30.159Z,8.07
2018-10-02T12:41:30.240Z,8.13
2018-10-02T12:42:29.732Z,8.04
2018-10-02T12:43:29.726Z,8.07
2018-10-02T12:44:29.688Z,8.07
2018-10-02T12:45:29.757Z,8.12
2018-10-02T12:46:29.681Z,8.07
2018-10-02T12:47:30.764Z,8.13
2018-10-02T12:48:29.647Z,8.13
2018-10-02T12:49:29.631Z,8.18
2018-10-02T12:50:29.640Z,8.07
2018-10-02T12:51:29.692Z,8.13
2018-10-02T12:52:29.689Z,8.10
2018-10-02T12:53:29.587Z,8.17
2018-10-02T12:54:29.853Z,8.12
2018-10-02T12:55:29.565Z,8.21
2018-10-02T12:56:29.567Z,8.25
2018-10-02T12:57:29.699Z,8.24
2018-10-02T12:58:29.528Z,8.25
2018-10-02T12:59:29.618Z,8.25
2018-10-02T13:00:29.508Z,8.20
2018-10-02T13:01:29.507Z,8.24
2018-10-02T13:02:29.483Z,8.18
2018-10-02T13:03:29.472Z,8.31
2018-10-02T13:04:29.462Z,8.13
2018-10-02T13:05:29.452Z,8.18
2018-10-02T13:06:29.462Z,8.21
2018-10-02T13:07:29.426Z,8.21
2018-10-02T13:08:29.420Z,8.20
2018-10-02T13:09:29.405Z,8.12
2018-10-02T13:10:29.392Z,8.12
2018-10-02T13:11:29.407Z,8.12
2018-10-02T13:12:29.378Z,8.14
2018-10-02T13:13:29.362Z,8.21
2018-10-02T13:14:29.351Z,8.18
2018-10-02T13:15:29.344Z,8.14
2018-10-02T13:16:29.367Z,8.06
2018-10-02T13:17:29.317Z,8.04
2018-10-02T13:18:29.305Z,8.13
2018-10-02T13:19:29.295Z,8.12
2018-10-02T13:20:29.287Z,8.18
2018-10-02T13:21:29.284Z,8.22
2018-10-02T13:22:29.260Z,8.21
2018-10-02T13:23:29.244Z,8.20
2018-10-02T13:24:29.249Z,8.27
2018-10-02T13:25:29.287Z,8.17
2018-10-02T13:26:29.251Z,8.27
2018-10-02T13:27:29.213Z,8.36
2018-10-02T13:28:29.194Z,8.27
2018-10-02T13:29:29.183Z,8.34
2018-10-02T13:30:29.169Z,8.27
2018-10-02T13:31:29.173Z,8.39
2018-10-02T13:32:29.149Z,8.40
2018-10-02T13:33:29.135Z,8.39
2018-10-02T13:34:29.174Z,8.47
2018-10-02T13:35:29.114Z,8.50
2018-10-02T13:36:29.113Z,8.52
2018-10-02T13:37:29.383Z,8.50
2018-10-02T13:38:29.070Z,8.61
2018-10-02T13:39:29.093Z,8.65
2018-10-02T13:40:29.056Z,8.75
2018-10-02T13:41:29.063Z,8.70
2018-10-02T13:42:29.032Z,8.76
2018-10-02T13:43:29.023Z,8.71
2018-10-02T13:44:29.305Z,8.76
2018-10-02T13:45:29.339Z,8.71
2018-10-02T13:46:29.007Z,8.68
2018-10-02T13:47:29.113Z,8.61
2018-10-02T13:48:28.967Z,8.64
2018-10-02T13:49:29.266Z,8.70
2018-10-02T13:50:28.959Z,8.70
2018-10-02T13:51:28.954Z,8.82
2018-10-02T13:52:28.923Z,8.78
2018-10-02T13:53:28.926Z,8.73
2018-10-02T13:54:28.903Z,8.79
2018-10-02T13:55:29.000Z,8.83
2018-10-02T13:56:28.895Z,8.89
2018-10-02T13:57:28.868Z,8.89
2018-10-02T13:58:28.858Z,8.88
2018-10-02T13:59:28.847Z,8.88
2018-10-02T14:00:28.833Z,8.96
2018-10-02T14:01:29.278Z,8.94
2018-10-02T14:02:28.815Z,8.91
2018-10-02T14:03:28.805Z,8.91
2018-10-02T14:04:28.900Z,8.86
2018-10-02T14:05:28.914Z,8.91
2018-10-02T14:06:28.828Z,8.91
2018-10-02T14:07:28.758Z,8.79
2018-10-02T14:08:29.063Z,8.80
2018-10-02T14:09:29.000Z,8.68
2018-10-02T14:10:28.726Z,8.67
2018-10-02T14:11:28.722Z,8.63
2018-10-02T14:12:28.693Z,8.63
2018-10-02T14:13:28.691Z,8.63
2018-10-02T14:14:28.674Z,8.65
2018-10-02T14:15:28.724Z,8.67
2018-10-02T14:16:28.704Z,8.75
2018-10-02T14:17:28.640Z,8.75
2018-10-02T14:18:28.629Z,8.68
2018-10-02T14:19:28.617Z,8.78
2018-10-02T14:20:28.606Z,8.67
2018-10-02T14:21:28.756Z,8.73
2018-10-02T14:22:28.589Z,8.86
2018-10-02T14:23:28.572Z,8.86
2018-10-02T14:24:28.563Z,8.79
2018-10-02T14:25:28.549Z,8.76
2018-10-02T14:26:28.538Z,8.71
2018-10-02T14:27:28.981Z,8.73
2018-10-02T14:28:28.505Z,8.71
2018-10-02T14:29:28.505Z,8.80
2018-10-02T14:30:28.493Z,8.83
2018-10-02T14:31:28.482Z,8.83
2018-10-02T14:32:28.536Z,8.89
2018-10-02T14:33:28.460Z,8.89
2018-10-02T14:34:28.450Z,8.83
2018-10-02T14:35:28.440Z,8.75
2018-10-02T14:36:28.479Z,8.73
2018-10-02T14:37:28.421Z,8.71
2018-10-02T14:38:28.406Z,8.75
2018-10-02T14:39:28.399Z,8.82
2018-10-02T14:40:28.386Z,8.73
2018-10-02T14:41:28.780Z,8.71
2018-10-02T14:42:28.374Z,8.70
2018-10-02T14:43:28.427Z,8.63
2018-10-02T14:44:28.360Z,8.71
2018-10-02T14:45:28.326Z,8.70
2018-10-02T14:46:28.316Z,8.65
2018-10-02T14:47:28.317Z,8.61
2018-10-02T14:48:28.429Z,8.57
2018-10-02T14:49:28.376Z,8.64
2018-10-02T14:50:28.270Z,8.55
2018-10-02T14:51:28.259Z,8.47
2018-10-02T14:52:28.254Z,8.52
2018-10-02T14:53:28.236Z,8.54
2018-10-02T14:54:28.225Z,8.55
2018-10-02T14:55:28.214Z,8.52
2018-10-02T14:56:28.202Z,8.55
2018-10-02T14:57:28.357Z,8.55
2018-10-02T14:58:28.180Z,8.64
2018-10-02T14:59:28.168Z,8.64
2018-10-02T15:00:28.152Z,8.58
2018-10-02T15:01:28.145Z,8.63
2018-10-02T15:02:28.146Z,8.57
2018-10-02T15:03:28.124Z,8.57
2018-10-02T15:04:28.176Z,8.52
2018-10-02T15:05:28.260Z,8.55
2018-10-02T15:06:28.088Z,8.57
2018-10-02T15:07:28.089Z,8.52
2018-10-02T15:08:28.066Z,8.47
2018-10-02T15:09:28.055Z,8.50
2018-10-02T15:10:28.182Z,8.55
2018-10-02T15:11:28.036Z,8.49
2018-10-02T15:12:28.038Z,8.63
2018-10-02T15:13:27.997Z,8.58
2018-10-02T15:14:27.999Z,8.52
2018-10-02T15:15:27.991Z,8.54
2018-10-02T15:16:27.974Z,8.60
2018-10-02T15:17:28.120Z,8.64
2018-10-02T15:18:27.971Z,8.65
2018-10-02T15:19:27.945Z,8.70
2018-10-02T15:20:27.935Z,8.70
2018-10-02T15:21:27.926Z,8.76
2018-10-02T15:22:27.923Z,8.71
2018-10-02T15:23:28.104Z,8.73
2018-10-02T15:24:28.000Z,8.75
2018-10-02T15:25:27.906Z,8.63
2018-10-02T15:26:27.865Z,8.73
2018-10-02T15:27:27.862Z,8.68
2018-10-02T15:28:27.843Z,8.76
2018-10-02T15:29:28.111Z,8.63
2018-10-02T15:30:27.871Z,8.60
2018-10-02T15:31:27.844Z,8.63
2018-10-02T15:32:27.856Z,8.63
2018-10-02T15:33:27.876Z,8.54
2018-10-02T15:34:27.774Z,8.58
2018-10-02T15:35:27.763Z,8.65
2018-10-02T15:36:27.761Z,8.64
2018-10-02T15:37:27.910Z,8.55
2018-10-02T15:38:27.779Z,8.57
2018-10-02T15:39:27.718Z,8.49
2018-10-02T15:40:27.711Z,8.58
2018-10-02T15:41:27.698Z,8.58
2018-10-02T15:42:27.700Z,8.54
2018-10-02T15:43:27.944Z,8.49
2018-10-02T15:44:27.676Z,8.54
2018-10-02T15:45:27.650Z,8.57
2018-10-02T15:46:27.639Z,8.50
2018-10-02T15:47:27.639Z,8.61
2018-10-02T15:48:27.616Z,8.65
2018-10-02T15:49:27.606Z,8.60
2018-10-02T15:50:27.593Z,8.68
2018-10-02T15:51:27.582Z,8.64
2018-10-02T15:52:27.692Z,8.64
2018-10-02T15:53:27.560Z,8.58
2018-10-02T15:54:27.550Z,8.61
2018-10-02T15:55:27.589Z,8.58
2018-10-02T15:56:27.525Z,8.50
2018-10-02T15:57:27.526Z,8.61
2018-10-02T15:58:28.153Z,8.64
2018-10-02T15:59:27.492Z,8.61
2018-10-02T16:00:27.480Z,8.61
2018-10-02T16:01:27.469Z,8.63
2018-10-02T16:02:27.477Z,8.64
2018-10-02T16:03:27.510Z,8.73
2018-10-02T16:04:27.440Z,8.61
2018-10-02T16:05:27.426Z,8.64
2018-10-02T16:06:27.415Z,8.64
2018-10-02T16:07:27.413Z,8.67
2018-10-02T16:08:27.393Z,8.61
2018-10-02T16:09:27.415Z,8.60
2018-10-02T16:10:27.372Z,8.63
2018-10-02T16:11:27.422Z,8.60
2018-10-02T16:12:27.361Z,8.63
2018-10-02T16:13:27.349Z,8.68
2018-10-02T16:14:27.330Z,8.64
2018-10-02T16:15:27.317Z,8.57
2018-10-02T16:16:27.400Z,8.61
2018-10-02T16:17:27.307Z,8.63
2018-10-02T16:18:27.363Z,8.65
2018-10-02T16:19:27.274Z,8.58
2018-10-02T16:20:27.257Z,8.61
2018-10-02T16:21:27.246Z,8.58
2018-10-02T16:22:27.365Z,8.64
2018-10-02T16:23:27.232Z,8.61
2018-10-02T16:24:27.213Z,8.63
2018-10-02T16:25:27.213Z,8.67
2018-10-02T16:26:27.242Z,8.63
2018-10-02T16:27:27.488Z,8.54
2018-10-02T16:28:27.171Z,8.57
2018-10-02T16:29:27.160Z,8.60
2018-10-02T16:30:27.164Z,8.60
2018-10-02T16:31:27.136Z,8.55
2018-10-02T16:32:27.129Z,8.64
2018-10-02T16:33:27.127Z,8.58
2018-10-02T16:34:27.206Z,8.58
2018-10-02T16:35:27.091Z,8.58
2018-10-02T16:36:27.083Z,8.64
2018-10-02T16:37:27.068Z,8.65
2018-10-02T16:38:27.228Z,8.61
2018-10-02T16:39:27.505Z,8.63
2018-10-02T16:40:27.040Z,8.64
2018-10-02T16:41:27.025Z,8.64
2018-10-02T16:42:27.013Z,8.71
2018-10-02T16:43:27.012Z,8.64
2018-10-02T16:44:26.993Z,8.60
2018-10-02T16:45:26.982Z,8.61
2018-10-02T16:46:26.970Z,8.63
2018-10-02T16:47:26.954Z,8.68
2018-10-02T16:48:26.959Z,8.63
2018-10-02T16:49:27.110Z,8.61
2018-10-02T16:50:26.934Z,8.58
2018-10-02T16:51:26.936Z,8.68
2018-10-02T16:52:26.914Z,8.68
2018-10-02T16:53:26.906Z,8.63
2018-10-02T16:54:27.910Z,8.68
2018-10-02T16:55:26.880Z,8.75
2018-10-02T16:56:26.870Z,8.71
2018-10-02T16:57:27.197Z,8.76
2018-10-02T16:58:26.856Z,8.67
2018-10-02T16:59:26.822Z,8.65
2018-10-02T17:00:26.812Z,8.75
2018-10-02T17:01:26.822Z,8.68
2018-10-02T17:02:26.795Z,8.78
2018-10-02T17:03:26.797Z,8.79
2018-10-02T17:04:26.770Z,8.70
2018-10-02T17:05:26.774Z,8.75
2018-10-02T17:06:26.750Z,8.79
2018-10-02T17:07:26.728Z,8.79
2018-10-02T17:08:27.073Z,8.75
2018-10-02T17:09:26.714Z,8.78